sensor_id;sensor_type;location;lat;lon;timestamp;P1;durP1;ratioP1;P2;durP2;ratioP2
9821;SDS011;4950;46.042;14.472;2024-01-27T00:00:43;84.38;;;44.88;;
9821;SDS011;4950;46.042;14.472;2024-01-27T00:03:11;73.20;;;41.05;;
9821;SDS011;4950;46.042;14.472;2024-01-27T00:05:37;69.43;;;40.93;;
9821;SDS011;4950;46.042;14.472;2024-01-27T00:08:04;71.80;;;41.05;;
9821;SDS011;4950;46.042;14.472;2024-01-27T00:10:33;73.70;;;41.60;;
9821;SDS011;4950;46.042;14.472;2024-01-27T00:12:59;69.00;;;40.17;;
9821;SDS011;4950;46.042;14.472;2024-01-27T00:15:26;64.35;;;40.22;;
9821;SDS011;4950;46.042;14.472;2024-01-27T00:17:53;98.03;;;49.00;;
9821;SDS011;4950;46.042;14.472;2024-01-27T00:20:19;93.67;;;46.03;;
9821;SDS011;4950;46.042;14.472;2024-01-27T00:22:46;99.13;;;45.55;;
9821;SDS011;4950;46.042;14.472;2024-01-27T00:25:13;89.73;;;44.53;;
9821;SDS011;4950;46.042;14.472;2024-01-27T00:27:41;75.03;;;41.63;;
9821;SDS011;4950;46.042;14.472;2024-01-27T00:30:08;75.87;;;42.67;;
9821;SDS011;4950;46.042;14.472;2024-01-27T00:32:36;72.10;;;40.37;;
9821;SDS011;4950;46.042;14.472;2024-01-27T00:35:03;67.60;;;39.50;;
9821;SDS011;4950;46.042;14.472;2024-01-27T00:37:31;73.90;;;40.53;;
9821;SDS011;4950;46.042;14.472;2024-01-27T00:39:57;74.00;;;39.57;;
9821;SDS011;4950;46.042;14.472;2024-01-27T00:42:24;79.10;;;39.93;;
9821;SDS011;4950;46.042;14.472;2024-01-27T00:44:53;79.83;;;42.70;;
9821;SDS011;4950;46.042;14.472;2024-01-27T00:47:19;73.13;;;41.13;;
9821;SDS011;4950;46.042;14.472;2024-01-27T00:49:46;82.70;;;43.13;;
9821;SDS011;4950;46.042;14.472;2024-01-27T00:52:13;68.68;;;39.45;;
9821;SDS011;4950;46.042;14.472;2024-01-27T00:54:40;67.17;;;37.40;;
9821;SDS011;4950;46.042;14.472;2024-01-27T00:57:06;76.73;;;41.27;;
9821;SDS011;4950;46.042;14.472;2024-01-27T00:59:33;75.93;;;39.57;;
9821;SDS011;4950;46.042;14.472;2024-01-27T01:02:01;69.20;;;39.67;;
9821;SDS011;4950;46.042;14.472;2024-01-27T01:04:28;70.33;;;40.93;;
9821;SDS011;4950;46.042;14.472;2024-01-27T01:06:55;74.17;;;40.60;;
9821;SDS011;4950;46.042;14.472;2024-01-27T01:09:22;62.90;;;37.13;;
9821;SDS011;4950;46.042;14.472;2024-01-27T01:11:49;71.20;;;38.80;;
9821;SDS011;4950;46.042;14.472;2024-01-27T01:14:15;76.13;;;38.70;;
9821;SDS011;4950;46.042;14.472;2024-01-27T01:16:42;68.63;;;39.53;;
9821;SDS011;4950;46.042;14.472;2024-01-27T01:19:10;65.97;;;38.80;;
9821;SDS011;4950;46.042;14.472;2024-01-27T01:21:37;73.80;;;40.33;;
9821;SDS011;4950;46.042;14.472;2024-01-27T01:24:04;69.60;;;38.77;;
9821;SDS011;4950;46.042;14.472;2024-01-27T01:26:30;68.20;;;38.63;;
9821;SDS011;4950;46.042;14.472;2024-01-27T01:28:57;67.93;;;39.83;;
9821;SDS011;4950;46.042;14.472;2024-01-27T01:31:24;67.47;;;36.97;;
9821;SDS011;4950;46.042;14.472;2024-01-27T01:33:50;63.93;;;37.60;;
9821;SDS011;4950;46.042;14.472;2024-01-27T01:36:18;65.53;;;36.40;;
9821;SDS011;4950;46.042;14.472;2024-01-27T01:38:45;64.57;;;37.50;;
9821;SDS011;4950;46.042;14.472;2024-01-27T01:41:12;66.53;;;39.17;;
9821;SDS011;4950;46.042;14.472;2024-01-27T01:43:39;74.90;;;40.70;;
9821;SDS011;4950;46.042;14.472;2024-01-27T01:46:05;69.73;;;39.77;;
9821;SDS011;4950;46.042;14.472;2024-01-27T01:48:32;73.47;;;39.50;;
9821;SDS011;4950;46.042;14.472;2024-01-27T01:50:59;73.70;;;40.07;;
9821;SDS011;4950;46.042;14.472;2024-01-27T01:53:28;73.77;;;39.40;;
9821;SDS011;4950;46.042;14.472;2024-01-27T01:55:54;70.83;;;39.57;;
9821;SDS011;4950;46.042;14.472;2024-01-27T01:58:22;69.23;;;40.60;;
9821;SDS011;4950;46.042;14.472;2024-01-27T02:00:48;68.33;;;39.00;;
9821;SDS011;4950;46.042;14.472;2024-01-27T02:03:15;65.03;;;39.53;;
9821;SDS011;4950;46.042;14.472;2024-01-27T02:05:42;73.67;;;40.77;;
9821;SDS011;4950;46.042;14.472;2024-01-27T02:08:09;75.60;;;42.13;;
9821;SDS011;4950;46.042;14.472;2024-01-27T02:10:37;73.97;;;40.20;;
9821;SDS011;4950;46.042;14.472;2024-01-27T02:13:04;72.57;;;40.67;;
9821;SDS011;4950;46.042;14.472;2024-01-27T02:15:42;73.50;;;39.97;;
9821;SDS011;4950;46.042;14.472;2024-01-27T02:18:09;65.30;;;38.97;;
9821;SDS011;4950;46.042;14.472;2024-01-27T02:20:35;64.30;;;37.80;;
9821;SDS011;4950;46.042;14.472;2024-01-27T02:23:03;64.93;;;37.60;;
9821;SDS011;4950;46.042;14.472;2024-01-27T02:25:31;62.10;;;36.90;;
9821;SDS011;4950;46.042;14.472;2024-01-27T02:27:58;65.00;;;37.77;;
9821;SDS011;4950;46.042;14.472;2024-01-27T02:30:25;70.00;;;39.03;;
9821;SDS011;4950;46.042;14.472;2024-01-27T02:32:53;72.33;;;38.13;;
9821;SDS011;4950;46.042;14.472;2024-01-27T02:35:20;67.80;;;38.10;;
9821;SDS011;4950;46.042;14.472;2024-01-27T02:37:46;68.57;;;38.37;;
9821;SDS011;4950;46.042;14.472;2024-01-27T02:40:13;62.77;;;37.57;;
9821;SDS011;4950;46.042;14.472;2024-01-27T02:42:42;69.43;;;38.37;;
9821;SDS011;4950;46.042;14.472;2024-01-27T02:45:09;63.53;;;36.20;;
9821;SDS011;4950;46.042;14.472;2024-01-27T02:47:36;68.67;;;37.20;;
9821;SDS011;4950;46.042;14.472;2024-01-27T02:50:03;68.37;;;40.90;;
9821;SDS011;4950;46.042;14.472;2024-01-27T02:52:31;72.90;;;41.17;;
9821;SDS011;4950;46.042;14.472;2024-01-27T02:54:58;81.07;;;42.27;;
9821;SDS011;4950;46.042;14.472;2024-01-27T02:57:24;76.50;;;43.50;;
9821;SDS011;4950;46.042;14.472;2024-01-27T02:59:52;67.33;;;42.57;;
9821;SDS011;4950;46.042;14.472;2024-01-27T03:02:19;70.63;;;41.40;;
9821;SDS011;4950;46.042;14.472;2024-01-27T03:04:46;68.63;;;40.67;;
9821;SDS011;4950;46.042;14.472;2024-01-27T03:07:12;70.73;;;37.93;;
9821;SDS011;4950;46.042;14.472;2024-01-27T03:09:39;67.93;;;37.60;;
9821;SDS011;4950;46.042;14.472;2024-01-27T03:12:06;62.73;;;38.83;;
9821;SDS011;4950;46.042;14.472;2024-01-27T03:14:33;64.63;;;38.43;;
9821;SDS011;4950;46.042;14.472;2024-01-27T03:17:01;55.47;;;34.60;;
9821;SDS011;4950;46.042;14.472;2024-01-27T03:19:28;61.90;;;37.63;;
9821;SDS011;4950;46.042;14.472;2024-01-27T03:21:55;59.70;;;35.83;;
9821;SDS011;4950;46.042;14.472;2024-01-27T03:24:21;58.50;;;35.63;;
9821;SDS011;4950;46.042;14.472;2024-01-27T03:26:48;62.00;;;37.17;;
9821;SDS011;4950;46.042;14.472;2024-01-27T03:29:15;57.60;;;37.00;;
9821;SDS011;4950;46.042;14.472;2024-01-27T03:31:41;56.93;;;35.27;;
9821;SDS011;4950;46.042;14.472;2024-01-27T03:34:09;56.63;;;37.00;;
9821;SDS011;4950;46.042;14.472;2024-01-27T03:36:36;62.33;;;35.87;;
9821;SDS011;4950;46.042;14.472;2024-01-27T03:39:03;54.30;;;36.27;;
9821;SDS011;4950;46.042;14.472;2024-01-27T03:41:30;59.33;;;35.43;;
9821;SDS011;4950;46.042;14.472;2024-01-27T03:43:56;52.80;;;33.70;;
9821;SDS011;4950;46.042;14.472;2024-01-27T03:46:23;53.13;;;35.13;;
9821;SDS011;4950;46.042;14.472;2024-01-27T03:48:50;50.40;;;32.23;;
9821;SDS011;4950;46.042;14.472;2024-01-27T03:51:18;79.87;;;35.23;;
9821;SDS011;4950;46.042;14.472;2024-01-27T03:53:44;71.17;;;37.50;;
9821;SDS011;4950;46.042;14.472;2024-01-27T03:56:11;70.00;;;37.93;;
9821;SDS011;4950;46.042;14.472;2024-01-27T03:58:38;59.17;;;36.93;;
9821;SDS011;4950;46.042;14.472;2024-01-27T04:01:05;61.30;;;36.47;;
9821;SDS011;4950;46.042;14.472;2024-01-27T04:03:32;72.70;;;38.43;;
9821;SDS011;4950;46.042;14.472;2024-01-27T04:05:58;62.33;;;37.67;;
9821;SDS011;4950;46.042;14.472;2024-01-27T04:08:28;67.37;;;38.23;;
9821;SDS011;4950;46.042;14.472;2024-01-27T04:10:55;61.90;;;36.77;;
9821;SDS011;4950;46.042;14.472;2024-01-27T04:13:22;57.93;;;35.60;;
9821;SDS011;4950;46.042;14.472;2024-01-27T04:15:48;60.00;;;34.20;;
9821;SDS011;4950;46.042;14.472;2024-01-27T04:18:16;60.37;;;34.50;;
9821;SDS011;4950;46.042;14.472;2024-01-27T04:20:43;56.47;;;35.27;;
9821;SDS011;4950;46.042;14.472;2024-01-27T04:23:11;56.63;;;34.17;;
9821;SDS011;4950;46.042;14.472;2024-01-27T04:25:39;58.97;;;33.37;;
9821;SDS011;4950;46.042;14.472;2024-01-27T04:28:06;54.83;;;34.33;;
9821;SDS011;4950;46.042;14.472;2024-01-27T04:30:34;53.47;;;33.40;;
9821;SDS011;4950;46.042;14.472;2024-01-27T04:33:01;51.63;;;33.23;;
9821;SDS011;4950;46.042;14.472;2024-01-27T04:35:27;58.23;;;34.97;;
9821;SDS011;4950;46.042;14.472;2024-01-27T04:37:54;55.40;;;34.27;;
9821;SDS011;4950;46.042;14.472;2024-01-27T04:40:21;55.17;;;34.00;;
9821;SDS011;4950;46.042;14.472;2024-01-27T04:42:49;49.60;;;32.23;;
9821;SDS011;4950;46.042;14.472;2024-01-27T04:45:15;49.13;;;33.70;;
9821;SDS011;4950;46.042;14.472;2024-01-27T04:47:42;50.90;;;31.90;;
9821;SDS011;4950;46.042;14.472;2024-01-27T04:50:09;48.07;;;31.37;;
9821;SDS011;4950;46.042;14.472;2024-01-27T04:52:36;61.80;;;35.57;;
9821;SDS011;4950;46.042;14.472;2024-01-27T04:55:02;55.10;;;34.47;;
9821;SDS011;4950;46.042;14.472;2024-01-27T04:57:30;53.23;;;32.67;;
9821;SDS011;4950;46.042;14.472;2024-01-27T04:59:58;51.93;;;30.13;;
9821;SDS011;4950;46.042;14.472;2024-01-27T05:02:24;51.60;;;29.97;;
9821;SDS011;4950;46.042;14.472;2024-01-27T05:04:51;51.67;;;31.13;;
9821;SDS011;4950;46.042;14.472;2024-01-27T05:07:18;47.57;;;31.43;;
9821;SDS011;4950;46.042;14.472;2024-01-27T05:09:44;46.97;;;30.00;;
9821;SDS011;4950;46.042;14.472;2024-01-27T05:12:11;42.90;;;27.87;;
9821;SDS011;4950;46.042;14.472;2024-01-27T05:14:42;42.37;;;29.30;;
9821;SDS011;4950;46.042;14.472;2024-01-27T05:17:11;45.47;;;29.10;;
9821;SDS011;4950;46.042;14.472;2024-01-27T05:19:37;49.73;;;28.30;;
9821;SDS011;4950;46.042;14.472;2024-01-27T05:22:04;50.93;;;29.13;;
9821;SDS011;4950;46.042;14.472;2024-01-27T05:24:31;46.80;;;29.23;;
9821;SDS011;4950;46.042;14.472;2024-01-27T05:26:58;46.30;;;28.50;;
9821;SDS011;4950;46.042;14.472;2024-01-27T05:29:25;42.87;;;27.87;;
9821;SDS011;4950;46.042;14.472;2024-01-27T05:31:52;40.40;;;27.27;;
9821;SDS011;4950;46.042;14.472;2024-01-27T05:34:20;43.90;;;28.73;;
9821;SDS011;4950;46.042;14.472;2024-01-27T05:36:47;49.47;;;29.47;;
9821;SDS011;4950;46.042;14.472;2024-01-27T05:39:14;49.60;;;31.43;;
9821;SDS011;4950;46.042;14.472;2024-01-27T05:41:40;52.97;;;30.37;;
9821;SDS011;4950;46.042;14.472;2024-01-27T05:44:07;54.97;;;32.87;;
9821;SDS011;4950;46.042;14.472;2024-01-27T05:46:34;55.03;;;34.10;;
9821;SDS011;4950;46.042;14.472;2024-01-27T05:49:00;50.77;;;32.17;;
9821;SDS011;4950;46.042;14.472;2024-01-27T05:51:30;53.33;;;31.57;;
9821;SDS011;4950;46.042;14.472;2024-01-27T05:53:56;55.07;;;31.63;;
9821;SDS011;4950;46.042;14.472;2024-01-27T05:56:23;54.07;;;33.40;;
9821;SDS011;4950;46.042;14.472;2024-01-27T05:58:50;48.80;;;30.30;;
9821;SDS011;4950;46.042;14.472;2024-01-27T06:01:17;45.90;;;29.47;;
9821;SDS011;4950;46.042;14.472;2024-01-27T06:03:44;49.07;;;28.97;;
9821;SDS011;4950;46.042;14.472;2024-01-27T06:06:11;45.60;;;28.30;;
9821;SDS011;4950;46.042;14.472;2024-01-27T06:08:39;45.20;;;29.57;;
9821;SDS011;4950;46.042;14.472;2024-01-27T06:11:05;46.53;;;28.90;;
9821;SDS011;4950;46.042;14.472;2024-01-27T06:13:32;44.13;;;27.40;;
9821;SDS011;4950;46.042;14.472;2024-01-27T06:15:59;44.60;;;28.70;;
9821;SDS011;4950;46.042;14.472;2024-01-27T06:18:26;45.80;;;29.07;;
9821;SDS011;4950;46.042;14.472;2024-01-27T06:20:53;41.87;;;28.53;;
9821;SDS011;4950;46.042;14.472;2024-01-27T06:23:19;42.80;;;28.53;;
9821;SDS011;4950;46.042;14.472;2024-01-27T06:25:47;40.37;;;27.67;;
9821;SDS011;4950;46.042;14.472;2024-01-27T06:28:14;48.43;;;30.70;;
9821;SDS011;4950;46.042;14.472;2024-01-27T06:30:41;48.27;;;32.13;;
9821;SDS011;4950;46.042;14.472;2024-01-27T06:33:07;51.87;;;31.13;;
9821;SDS011;4950;46.042;14.472;2024-01-27T06:35:34;48.63;;;30.27;;
9821;SDS011;4950;46.042;14.472;2024-01-27T06:38:01;54.63;;;31.83;;
9821;SDS011;4950;46.042;14.472;2024-01-27T06:40:27;47.50;;;30.10;;
9821;SDS011;4950;46.042;14.472;2024-01-27T06:42:56;45.77;;;30.20;;
9821;SDS011;4950;46.042;14.472;2024-01-27T06:45:22;47.87;;;30.77;;
9821;SDS011;4950;46.042;14.472;2024-01-27T06:47:49;48.93;;;29.43;;
9821;SDS011;4950;46.042;14.472;2024-01-27T06:50:16;50.53;;;31.37;;
9821;SDS011;4950;46.042;14.472;2024-01-27T06:52:42;50.63;;;31.40;;
9821;SDS011;4950;46.042;14.472;2024-01-27T06:55:09;48.37;;;30.43;;
9821;SDS011;4950;46.042;14.472;2024-01-27T06:57:36;48.57;;;30.47;;
9821;SDS011;4950;46.042;14.472;2024-01-27T07:00:05;44.63;;;30.00;;
9821;SDS011;4950;46.042;14.472;2024-01-27T07:02:32;50.92;;;31.80;;
9821;SDS011;4950;46.042;14.472;2024-01-27T07:04:59;50.63;;;29.70;;
9821;SDS011;4950;46.042;14.472;2024-01-27T07:07:26;51.73;;;32.20;;
9821;SDS011;4950;46.042;14.472;2024-01-27T07:09:54;48.60;;;32.00;;
9821;SDS011;4950;46.042;14.472;2024-01-27T07:12:21;56.60;;;31.97;;
9821;SDS011;4950;46.042;14.472;2024-01-27T07:14:48;47.30;;;31.10;;
9821;SDS011;4950;46.042;14.472;2024-01-27T07:17:17;55.87;;;31.87;;
9821;SDS011;4950;46.042;14.472;2024-01-27T07:19:44;50.00;;;30.97;;
9821;SDS011;4950;46.042;14.472;2024-01-27T07:22:11;52.77;;;31.00;;
9821;SDS011;4950;46.042;14.472;2024-01-27T07:24:38;50.27;;;30.50;;
9821;SDS011;4950;46.042;14.472;2024-01-27T07:27:05;54.03;;;30.80;;
9821;SDS011;4950;46.042;14.472;2024-01-27T07:29:31;46.93;;;29.10;;
9821;SDS011;4950;46.042;14.472;2024-01-27T07:31:58;46.10;;;30.30;;
9821;SDS011;4950;46.042;14.472;2024-01-27T07:34:26;48.37;;;30.17;;
9821;SDS011;4950;46.042;14.472;2024-01-27T07:36:53;50.50;;;31.63;;
9821;SDS011;4950;46.042;14.472;2024-01-27T07:39:20;53.43;;;30.90;;
9821;SDS011;4950;46.042;14.472;2024-01-27T07:41:46;51.07;;;31.33;;
9821;SDS011;4950;46.042;14.472;2024-01-27T07:44:14;56.10;;;34.57;;
9821;SDS011;4950;46.042;14.472;2024-01-27T07:46:41;52.53;;;32.57;;
9821;SDS011;4950;46.042;14.472;2024-01-27T07:49:08;57.63;;;34.27;;
9821;SDS011;4950;46.042;14.472;2024-01-27T07:51:38;52.60;;;33.33;;
9821;SDS011;4950;46.042;14.472;2024-01-27T07:54:05;54.27;;;34.13;;
9821;SDS011;4950;46.042;14.472;2024-01-27T07:56:32;79.07;;;34.13;;
9821;SDS011;4950;46.042;14.472;2024-01-27T07:58:59;60.97;;;34.77;;
9821;SDS011;4950;46.042;14.472;2024-01-27T08:01:25;95.77;;;35.10;;
9821;SDS011;4950;46.042;14.472;2024-01-27T08:03:52;61.27;;;33.97;;
9821;SDS011;4950;46.042;14.472;2024-01-27T08:06:21;54.27;;;31.40;;
9821;SDS011;4950;46.042;14.472;2024-01-27T08:08:54;52.80;;;30.97;;
9821;SDS011;4950;46.042;14.472;2024-01-27T08:11:21;44.60;;;29.80;;
9821;SDS011;4950;46.042;14.472;2024-01-27T08:13:48;53.57;;;32.27;;
9821;SDS011;4950;46.042;14.472;2024-01-27T08:16:15;50.87;;;31.17;;
9821;SDS011;4950;46.042;14.472;2024-01-27T08:18:42;52.90;;;31.43;;
9821;SDS011;4950;46.042;14.472;2024-01-27T08:21:10;51.37;;;31.30;;
9821;SDS011;4950;46.042;14.472;2024-01-27T08:23:37;47.07;;;30.77;;
9821;SDS011;4950;46.042;14.472;2024-01-27T08:26:06;52.93;;;33.00;;
9821;SDS011;4950;46.042;14.472;2024-01-27T08:28:32;55.03;;;34.40;;
9821;SDS011;4950;46.042;14.472;2024-01-27T08:30:59;61.23;;;32.73;;
9821;SDS011;4950;46.042;14.472;2024-01-27T08:33:26;52.17;;;32.27;;
9821;SDS011;4950;46.042;14.472;2024-01-27T08:35:53;52.40;;;31.57;;
9821;SDS011;4950;46.042;14.472;2024-01-27T08:38:20;54.70;;;33.00;;
9821;SDS011;4950;46.042;14.472;2024-01-27T08:40:46;49.10;;;31.47;;
9821;SDS011;4950;46.042;14.472;2024-01-27T08:43:14;59.70;;;31.83;;
9821;SDS011;4950;46.042;14.472;2024-01-27T08:45:41;55.37;;;33.00;;
9821;SDS011;4950;46.042;14.472;2024-01-27T08:48:08;61.37;;;34.87;;
9821;SDS011;4950;46.042;14.472;2024-01-27T08:50:34;51.73;;;33.53;;
9821;SDS011;4950;46.042;14.472;2024-01-27T08:53:01;53.77;;;32.27;;
9821;SDS011;4950;46.042;14.472;2024-01-27T08:55:28;53.30;;;34.43;;
9821;SDS011;4950;46.042;14.472;2024-01-27T08:57:55;55.20;;;35.60;;
9821;SDS011;4950;46.042;14.472;2024-01-27T09:00:23;51.77;;;33.27;;
9821;SDS011;4950;46.042;14.472;2024-01-27T09:02:50;62.07;;;35.30;;
9821;SDS011;4950;46.042;14.472;2024-01-27T09:05:18;50.23;;;31.90;;
9821;SDS011;4950;46.042;14.472;2024-01-27T09:07:45;55.30;;;33.73;;
9821;SDS011;4950;46.042;14.472;2024-01-27T09:10:11;53.97;;;34.97;;
9821;SDS011;4950;46.042;14.472;2024-01-27T09:12:40;57.90;;;36.03;;
9821;SDS011;4950;46.042;14.472;2024-01-27T09:15:07;60.60;;;37.30;;
9821;SDS011;4950;46.042;14.472;2024-01-27T09:17:36;59.80;;;36.93;;
9821;SDS011;4950;46.042;14.472;2024-01-27T09:20:03;58.83;;;37.17;;
9821;SDS011;4950;46.042;14.472;2024-01-27T09:22:31;67.07;;;41.20;;
9821;SDS011;4950;46.042;14.472;2024-01-27T09:24:57;62.43;;;37.17;;
9821;SDS011;4950;46.042;14.472;2024-01-27T09:27:24;59.90;;;38.57;;
9821;SDS011;4950;46.042;14.472;2024-01-27T09:29:51;57.63;;;36.50;;
9821;SDS011;4950;46.042;14.472;2024-01-27T09:32:18;64.93;;;38.57;;
9821;SDS011;4950;46.042;14.472;2024-01-27T09:34:46;67.83;;;39.77;;
9821;SDS011;4950;46.042;14.472;2024-01-27T09:37:12;71.23;;;40.23;;
9821;SDS011;4950;46.042;14.472;2024-01-27T09:39:39;66.10;;;39.43;;
9821;SDS011;4950;46.042;14.472;2024-01-27T09:42:06;63.17;;;39.67;;
9821;SDS011;4950;46.042;14.472;2024-01-27T09:44:35;68.25;;;39.15;;
9821;SDS011;4950;46.042;14.472;2024-01-27T09:47:02;60.50;;;39.60;;
9821;SDS011;4950;46.042;14.472;2024-01-27T09:49:31;70.77;;;42.53;;
9821;SDS011;4950;46.042;14.472;2024-01-27T09:51:59;71.43;;;42.13;;
9821;SDS011;4950;46.042;14.472;2024-01-27T09:54:26;70.40;;;41.63;;
9821;SDS011;4950;46.042;14.472;2024-01-27T09:56:53;67.17;;;40.97;;
9821;SDS011;4950;46.042;14.472;2024-01-27T09:59:21;72.67;;;42.00;;
9821;SDS011;4950;46.042;14.472;2024-01-27T10:01:49;72.20;;;43.60;;
9821;SDS011;4950;46.042;14.472;2024-01-27T10:04:16;76.07;;;44.67;;
9821;SDS011;4950;46.042;14.472;2024-01-27T10:06:45;77.78;;;44.72;;
9821;SDS011;4950;46.042;14.472;2024-01-27T10:09:16;74.55;;;45.55;;
9821;SDS011;4950;46.042;14.472;2024-01-27T10:11:45;75.73;;;43.73;;
9821;SDS011;4950;46.042;14.472;2024-01-27T10:14:12;70.55;;;42.22;;
9821;SDS011;4950;46.042;14.472;2024-01-27T10:16:40;67.27;;;41.40;;
9821;SDS011;4950;46.042;14.472;2024-01-27T10:19:08;74.43;;;42.10;;
9821;SDS011;4950;46.042;14.472;2024-01-27T10:21:40;73.23;;;41.93;;
9821;SDS011;4950;46.042;14.472;2024-01-27T10:24:07;74.27;;;41.97;;
9821;SDS011;4950;46.042;14.472;2024-01-27T10:26:35;70.20;;;42.87;;
9821;SDS011;4950;46.042;14.472;2024-01-27T10:29:02;77.40;;;45.47;;
9821;SDS011;4950;46.042;14.472;2024-01-27T10:31:29;78.43;;;46.00;;
9821;SDS011;4950;46.042;14.472;2024-01-27T10:33:57;71.67;;;42.90;;
9821;SDS011;4950;46.042;14.472;2024-01-27T10:36:24;70.33;;;44.47;;
9821;SDS011;4950;46.042;14.472;2024-01-27T10:38:52;63.27;;;40.87;;
9821;SDS011;4950;46.042;14.472;2024-01-27T10:41:21;61.83;;;41.87;;
9821;SDS011;4950;46.042;14.472;2024-01-27T10:43:52;65.07;;;42.53;;
9821;SDS011;4950;46.042;14.472;2024-01-27T10:46:20;64.97;;;41.72;;
9821;SDS011;4950;46.042;14.472;2024-01-27T10:48:49;62.72;;;39.55;;
9821;SDS011;4950;46.042;14.472;2024-01-27T10:53:48;50.50;;;35.20;;
9821;SDS011;4950;46.042;14.472;2024-01-27T10:56:17;53.03;;;34.60;;
9821;SDS011;4950;46.042;14.472;2024-01-27T10:58:44;49.10;;;33.65;;
9821;SDS011;4950;46.042;14.472;2024-01-27T11:01:16;49.23;;;33.50;;
9821;SDS011;4950;46.042;14.472;2024-01-27T11:03:47;48.40;;;31.27;;
9821;SDS011;4950;46.042;14.472;2024-01-27T11:06:16;48.45;;;32.92;;
9821;SDS011;4950;46.042;14.472;2024-01-27T11:08:46;47.65;;;32.65;;
9821;SDS011;4950;46.042;14.472;2024-01-27T11:11:15;48.97;;;31.92;;
9821;SDS011;4950;46.042;14.472;2024-01-27T11:13:42;45.80;;;31.35;;
9821;SDS011;4950;46.042;14.472;2024-01-27T11:16:18;42.20;;;30.10;;
9821;SDS011;4950;46.042;14.472;2024-01-27T11:18:45;42.13;;;30.85;;
9821;SDS011;4950;46.042;14.472;2024-01-27T11:21:13;46.83;;;31.65;;
9821;SDS011;4950;46.042;14.472;2024-01-27T11:23:41;47.45;;;33.40;;
9821;SDS011;4950;46.042;14.472;2024-01-27T11:26:08;45.38;;;32.00;;
9821;SDS011;4950;46.042;14.472;2024-01-27T11:28:39;46.13;;;32.38;;
9821;SDS011;4950;46.042;14.472;2024-01-27T11:31:06;46.92;;;32.03;;
9821;SDS011;4950;46.042;14.472;2024-01-27T11:33:39;44.13;;;32.25;;
9821;SDS011;4950;46.042;14.472;2024-01-27T11:36:07;48.75;;;33.25;;
9821;SDS011;4950;46.042;14.472;2024-01-27T11:38:37;47.15;;;31.92;;
9821;SDS011;4950;46.042;14.472;2024-01-27T11:43:30;47.60;;;31.95;;
9821;SDS011;4950;46.042;14.472;2024-01-27T11:45:57;47.95;;;32.60;;
9821;SDS011;4950;46.042;14.472;2024-01-27T11:48:24;46.63;;;31.88;;
9821;SDS011;4950;46.042;14.472;2024-01-27T11:51:02;44.90;;;30.48;;
9821;SDS011;4950;46.042;14.472;2024-01-27T11:53:31;41.75;;;29.98;;
9821;SDS011;4950;46.042;14.472;2024-01-27T11:55:57;44.35;;;28.70;;
9821;SDS011;4950;46.042;14.472;2024-01-27T11:58:24;41.17;;;29.75;;
9821;SDS011;4950;46.042;14.472;2024-01-27T12:00:51;44.63;;;29.25;;
9821;SDS011;4950;46.042;14.472;2024-01-27T12:03:18;38.58;;;28.90;;
9821;SDS011;4950;46.042;14.472;2024-01-27T12:05:45;41.97;;;29.20;;
9821;SDS011;4950;46.042;14.472;2024-01-27T12:08:13;42.72;;;29.90;;
9821;SDS011;4950;46.042;14.472;2024-01-27T12:10:40;41.28;;;28.00;;
9821;SDS011;4950;46.042;14.472;2024-01-27T12:13:07;42.88;;;28.88;;
9821;SDS011;4950;46.042;14.472;2024-01-27T12:15:34;41.63;;;26.95;;
9821;SDS011;4950;46.042;14.472;2024-01-27T12:18:01;47.30;;;29.15;;
9821;SDS011;4950;46.042;14.472;2024-01-27T12:23:02;39.38;;;27.00;;
9821;SDS011;4950;46.042;14.472;2024-01-27T12:25:30;44.47;;;29.13;;
9821;SDS011;4950;46.042;14.472;2024-01-27T12:27:57;45.22;;;29.98;;
9821;SDS011;4950;46.042;14.472;2024-01-27T12:30:28;40.92;;;29.42;;
9821;SDS011;4950;46.042;14.472;2024-01-27T12:32:55;44.17;;;30.00;;
9821;SDS011;4950;46.042;14.472;2024-01-27T12:35:23;39.08;;;28.88;;
9821;SDS011;4950;46.042;14.472;2024-01-27T12:37:50;37.08;;;26.58;;
9821;SDS011;4950;46.042;14.472;2024-01-27T12:40:17;35.70;;;26.23;;
9821;SDS011;4950;46.042;14.472;2024-01-27T12:42:45;38.70;;;26.52;;
9821;SDS011;4950;46.042;14.472;2024-01-27T12:45:12;38.67;;;27.23;;
9821;SDS011;4950;46.042;14.472;2024-01-27T12:47:39;38.03;;;25.25;;
9821;SDS011;4950;46.042;14.472;2024-01-27T12:50:06;40.53;;;26.90;;
9821;SDS011;4950;46.042;14.472;2024-01-27T12:52:34;45.45;;;26.95;;
9821;SDS011;4950;46.042;14.472;2024-01-27T12:55:00;35.83;;;24.88;;
9821;SDS011;4950;46.042;14.472;2024-01-27T12:57:27;37.78;;;25.92;;
9821;SDS011;4950;46.042;14.472;2024-01-27T12:59:55;38.92;;;26.25;;
9821;SDS011;4950;46.042;14.472;2024-01-27T13:02:22;39.22;;;23.55;;
9821;SDS011;4950;46.042;14.472;2024-01-27T13:04:49;35.17;;;23.75;;
9821;SDS011;4950;46.042;14.472;2024-01-27T13:07:16;35.13;;;24.73;;
9821;SDS011;4950;46.042;14.472;2024-01-27T13:09:42;34.85;;;23.58;;
9821;SDS011;4950;46.042;14.472;2024-01-27T13:12:09;34.22;;;23.27;;
9821;SDS011;4950;46.042;14.472;2024-01-27T13:14:36;38.05;;;22.38;;
9821;SDS011;4950;46.042;14.472;2024-01-27T13:17:04;32.47;;;23.20;;
9821;SDS011;4950;46.042;14.472;2024-01-27T13:19:31;39.00;;;23.63;;
9821;SDS011;4950;46.042;14.472;2024-01-27T13:21:58;38.38;;;25.40;;
9821;SDS011;4950;46.042;14.472;2024-01-27T13:24:24;32.42;;;23.42;;
9821;SDS011;4950;46.042;14.472;2024-01-27T13:26:51;38.67;;;23.45;;
9821;SDS011;4950;46.042;14.472;2024-01-27T13:29:18;31.65;;;22.35;;
9821;SDS011;4950;46.042;14.472;2024-01-27T13:31:45;41.33;;;25.65;;
9821;SDS011;4950;46.042;14.472;2024-01-27T13:34:13;33.85;;;22.10;;
9821;SDS011;4950;46.042;14.472;2024-01-27T13:36:40;35.87;;;23.70;;
9821;SDS011;4950;46.042;14.472;2024-01-27T13:39:07;36.15;;;24.05;;
9821;SDS011;4950;46.042;14.472;2024-01-27T13:41:34;32.92;;;23.27;;
9821;SDS011;4950;46.042;14.472;2024-01-27T13:44:02;34.10;;;23.27;;
9821;SDS011;4950;46.042;14.472;2024-01-27T13:46:31;34.93;;;25.33;;
9821;SDS011;4950;46.042;14.472;2024-01-27T13:48:57;37.80;;;25.20;;
9821;SDS011;4950;46.042;14.472;2024-01-27T13:51:26;35.75;;;25.10;;
9821;SDS011;4950;46.042;14.472;2024-01-27T13:53:52;40.38;;;23.77;;
9821;SDS011;4950;46.042;14.472;2024-01-27T13:56:19;34.38;;;24.25;;
9821;SDS011;4950;46.042;14.472;2024-01-27T13:58:46;31.75;;;23.55;;
9821;SDS011;4950;46.042;14.472;2024-01-27T14:01:13;33.22;;;23.27;;
9821;SDS011;4950;46.042;14.472;2024-01-27T14:03:40;37.08;;;22.50;;
9821;SDS011;4950;46.042;14.472;2024-01-27T14:06:06;37.75;;;24.92;;
9821;SDS011;4950;46.042;14.472;2024-01-27T14:08:38;36.15;;;23.33;;
9821;SDS011;4950;46.042;14.472;2024-01-27T14:11:05;42.80;;;24.13;;
9821;SDS011;4950;46.042;14.472;2024-01-27T14:13:32;34.20;;;22.52;;
9821;SDS011;4950;46.042;14.472;2024-01-27T14:15:59;30.63;;;23.05;;
9821;SDS011;4950;46.042;14.472;2024-01-27T14:18:25;40.92;;;25.00;;
9821;SDS011;4950;46.042;14.472;2024-01-27T14:20:53;32.50;;;24.02;;
9821;SDS011;4950;46.042;14.472;2024-01-27T14:23:20;34.13;;;23.35;;
9821;SDS011;4950;46.042;14.472;2024-01-27T14:25:48;32.78;;;24.63;;
9821;SDS011;4950;46.042;14.472;2024-01-27T14:28:15;32.75;;;23.40;;
9821;SDS011;4950;46.042;14.472;2024-01-27T14:30:42;30.60;;;23.02;;
9821;SDS011;4950;46.042;14.472;2024-01-27T14:33:09;34.35;;;24.45;;
9821;SDS011;4950;46.042;14.472;2024-01-27T14:35:35;35.28;;;24.58;;
9821;SDS011;4950;46.042;14.472;2024-01-27T14:38:02;34.72;;;24.27;;
9821;SDS011;4950;46.042;14.472;2024-01-27T14:40:29;34.90;;;23.75;;